sensor_id;sensor_type;location;lat;lon;timestamp;pressure;altitude;pressure_sealevel;temperature;humidity
65659;BME280;60181;53.258;6.932;2023-01-25T00:00:28;103981.76;;;13.96;64.95
65659;BME280;60181;53.258;6.932;2023-01-25T00:04:55;103978.30;;;13.96;64.89
65659;BME280;60181;53.258;6.932;2023-01-25T00:09:24;103976.23;;;13.96;65.20
65659;BME280;60181;53.258;6.932;2023-01-25T00:13:52;103973.08;;;13.95;64.89
65659;BME280;60181;53.258;6.932;2023-01-25T00:18:19;103969.65;;;13.95;64.71
65659;BME280;60181;53.258;6.932;2023-01-25T00:22:47;103965.94;;;13.95;64.90
65659;BME280;60181;53.258;6.932;2023-01-25T00:27:15;103962.05;;;13.94;64.76
65659;BME280;60181;53.258;6.932;2023-01-25T00:31:48;103957.13;;;13.93;64.88
65659;BME280;60181;53.258;6.932;2023-01-25T00:40:39;103947.36;;;13.90;64.89
65659;BME280;60181;53.258;6.932;2023-01-25T00:45:08;103943.82;;;13.88;64.80
65659;BME280;60181;53.258;6.932;2023-01-25T00:49:35;103940.23;;;13.86;64.75
65659;BME280;60181;53.258;6.932;2023-01-25T00:54:03;103937.43;;;13.84;64.78
65659;BME280;60181;53.258;6.932;2023-01-25T00:58:31;103933.51;;;13.82;64.76
65659;BME280;60181;53.258;6.932;2023-01-25T01:02:59;103929.39;;;13.81;64.69
65659;BME280;60181;53.258;6.932;2023-01-25T01:07:27;103925.71;;;13.80;65.33
65659;BME280;60181;53.258;6.932;2023-01-25T01:11:55;103922.64;;;13.80;64.67
65659;BME280;60181;53.258;6.932;2023-01-25T01:16:23;103918.62;;;13.80;64.59
65659;BME280;60181;53.258;6.932;2023-01-25T01:20:51;103914.92;;;13.80;64.67
65659;BME280;60181;53.258;6.932;2023-01-25T01:25:19;103911.45;;;13.80;64.50
65659;BME280;60181;53.258;6.932;2023-01-25T01:29:47;103908.80;;;13.80;64.52
65659;BME280;60181;53.258;6.932;2023-01-25T01:34:15;103907.23;;;13.80;64.45
65659;BME280;60181;53.258;6.932;2023-01-25T01:38:43;103905.46;;;13.79;64.42
65659;BME280;60181;53.258;6.932;2023-01-25T01:43:29;103903.86;;;13.79;64.40
65659;BME280;60181;53.258;6.932;2023-01-25T01:47:40;103902.33;;;13.78;64.34
65659;BME280;60181;53.258;6.932;2023-01-25T01:52:11;103900.50;;;13.78;64.42
65659;BME280;60181;53.258;6.932;2023-01-25T02:01:03;103895.48;;;13.77;64.32
65659;BME280;60181;53.258;6.932;2023-01-25T02:05:34;103893.20;;;13.76;64.31
65659;BME280;60181;53.258;6.932;2023-01-25T02:09:59;103891.54;;;13.75;64.50
65659;BME280;60181;53.258;6.932;2023-01-25T02:14:27;103889.16;;;13.74;64.38
65659;BME280;60181;53.258;6.932;2023-01-25T02:18:55;103887.06;;;13.74;64.45
65659;BME280;60181;53.258;6.932;2023-01-25T02:27:55;103878.30;;;13.73;64.46
65659;BME280;60181;53.258;6.932;2023-01-25T02:32:19;103873.28;;;13.72;64.63
65659;BME280;60181;53.258;6.932;2023-01-25T02:36:47;103870.51;;;13.71;64.53
65659;BME280;60181;53.258;6.932;2023-01-25T02:41:34;103867.46;;;13.70;64.57
65659;BME280;60181;53.258;6.932;2023-01-25T02:45:46;103863.96;;;13.68;64.50
65659;BME280;60181;53.258;6.932;2023-01-25T02:50:11;103859.03;;;13.67;64.50
65659;BME280;60181;53.258;6.932;2023-01-25T02:54:39;103853.50;;;13.65;64.47
65659;BME280;60181;53.258;6.932;2023-01-25T02:59:07;103849.56;;;13.64;64.46
65659;BME280;60181;53.258;6.932;2023-01-25T03:03:35;103846.03;;;13.63;64.50
65659;BME280;60181;53.258;6.932;2023-01-25T03:08:03;103841.76;;;13.62;64.57
65659;BME280;60181;53.258;6.932;2023-01-25T03:12:31;103838.11;;;13.60;64.62
65659;BME280;60181;53.258;6.932;2023-01-25T03:16:59;103834.00;;;13.59;64.67
65659;BME280;60181;53.258;6.932;2023-01-25T03:21:27;103830.37;;;13.58;64.70
65659;BME280;60181;53.258;6.932;2023-01-25T03:26:02;103827.16;;;13.58;64.61
65659;BME280;60181;53.258;6.932;2023-01-25T03:30:23;103822.56;;;13.58;64.53
65659;BME280;60181;53.258;6.932;2023-01-25T03:34:51;103816.67;;;13.59;66.26
65659;BME280;60181;53.258;6.932;2023-01-25T03:39:19;103811.91;;;13.60;64.88
65659;BME280;60181;53.258;6.932;2023-01-25T03:43:47;103805.80;;;13.61;64.92
65659;BME280;60181;53.258;6.932;2023-01-25T03:48:15;103799.71;;;13.61;65.11
65659;BME280;60181;53.258;6.932;2023-01-25T03:52:43;103793.46;;;13.60;65.48
65659;BME280;60181;53.258;6.932;2023-01-25T03:57:11;103789.40;;;13.53;65.32
65659;BME280;60181;53.258;6.932;2023-01-25T04:01:39;103784.90;;;13.43;65.78
65659;BME280;60181;53.258;6.932;2023-01-25T04:06:07;103782.67;;;13.35;65.64
65659;BME280;60181;53.258;6.932;2023-01-25T04:10:35;103779.17;;;13.27;65.54
65659;BME280;60181;53.258;6.932;2023-01-25T04:15:03;103775.32;;;13.21;65.33
65659;BME280;60181;53.258;6.932;2023-01-25T04:19:31;103774.10;;;13.16;65.18
65659;BME280;60181;53.258;6.932;2023-01-25T04:23:59;103773.35;;;13.11;65.19
65659;BME280;60181;53.258;6.932;2023-01-25T04:28:27;103771.95;;;13.07;65.16
65659;BME280;60181;53.258;6.932;2023-01-25T04:32:55;103770.46;;;13.03;65.18
65659;BME280;60181;53.258;6.932;2023-01-25T04:37:23;103769.42;;;13.00;64.89
65659;BME280;60181;53.258;6.932;2023-01-25T04:41:51;103767.03;;;12.97;64.90
65659;BME280;60181;53.258;6.932;2023-01-25T04:46:19;103763.60;;;12.95;64.73
65659;BME280;60181;53.258;6.932;2023-01-25T04:50:47;103758.87;;;12.98;64.28
65659;BME280;60181;53.258;6.932;2023-01-25T04:55:15;103753.32;;;13.03;64.34
65659;BME280;60181;53.258;6.932;2023-01-25T04:59:43;103749.34;;;13.06;64.45
65659;BME280;60181;53.258;6.932;2023-01-25T05:04:11;103745.36;;;13.10;64.55
65659;BME280;60181;53.258;6.932;2023-01-25T05:08:39;103742.22;;;13.12;64.65
65659;BME280;60181;53.258;6.932;2023-01-25T05:13:07;103740.73;;;13.15;64.89
65659;BME280;60181;53.258;6.932;2023-01-25T05:17:35;103741.25;;;13.16;65.15
65659;BME280;60181;53.258;6.932;2023-01-25T05:22:03;103741.92;;;13.17;65.31
65659;BME280;60181;53.258;6.932;2023-01-25T05:26:31;103744.07;;;13.17;65.40
65659;BME280;60181;53.258;6.932;2023-01-25T05:31:02;103745.87;;;13.17;65.43
65659;BME280;60181;53.258;6.932;2023-01-25T05:35:27;103745.30;;;13.16;65.59
65659;BME280;60181;53.258;6.932;2023-01-25T05:39:55;103744.14;;;13.16;65.60
65659;BME280;60181;53.258;6.932;2023-01-25T05:44:23;103742.92;;;13.17;65.74
65659;BME280;60181;53.258;6.932;2023-01-25T05:48:51;103741.02;;;13.16;65.87
65659;BME280;60181;53.258;6.932;2023-01-25T05:53:23;103737.98;;;13.17;65.64
65659;BME280;60181;53.258;6.932;2023-01-25T05:57:47;103735.50;;;13.18;65.73
65659;BME280;60181;53.258;6.932;2023-01-25T06:02:15;103733.28;;;13.18;65.84
65659;BME280;60181;53.258;6.932;2023-01-25T06:06:43;103732.19;;;13.19;65.84
65659;BME280;60181;53.258;6.932;2023-01-25T06:11:12;103731.62;;;13.19;66.17
65659;BME280;60181;53.258;6.932;2023-01-25T06:15:39;103731.10;;;13.18;66.27
65659;BME280;60181;53.258;6.932;2023-01-25T06:20:07;103730.51;;;13.21;64.24
65659;BME280;60181;53.258;6.932;2023-01-25T06:24:35;103727.61;;;13.22;65.42
65659;BME280;60181;53.258;6.932;2023-01-25T06:29:05;103724.60;;;13.21;64.83
65659;BME280;60181;53.258;6.932;2023-01-25T06:33:31;103720.63;;;13.21;64.40
65659;BME280;60181;53.258;6.932;2023-01-25T06:37:59;103715.30;;;13.20;64.03
65659;BME280;60181;53.258;6.932;2023-01-25T06:42:27;103710.06;;;13.19;63.67
65659;BME280;60181;53.258;6.932;2023-01-25T06:46:55;103707.28;;;13.18;63.58
65659;BME280;60181;53.258;6.932;2023-01-25T06:51:23;103708.00;;;13.17;62.95
65659;BME280;60181;53.258;6.932;2023-01-25T06:56:00;103710.79;;;13.16;63.48
65659;BME280;60181;53.258;6.932;2023-01-25T07:00:19;103712.00;;;13.14;63.57
65659;BME280;60181;53.258;6.932;2023-01-25T07:04:47;103710.60;;;13.13;63.46
65659;BME280;60181;53.258;6.932;2023-01-25T07:09:15;103706.81;;;13.12;63.29
65659;BME280;60181;53.258;6.932;2023-01-25T07:13:43;103701.60;;;13.10;63.24
65659;BME280;60181;53.258;6.932;2023-01-25T07:18:11;103696.90;;;13.09;63.25
65659;BME280;60181;53.258;6.932;2023-01-25T07:22:39;103692.68;;;13.07;63.18
65659;BME280;60181;53.258;6.932;2023-01-25T07:27:07;103691.11;;;13.06;63.14
65659;BME280;60181;53.258;6.932;2023-01-25T07:31:35;103691.13;;;13.05;62.98
65659;BME280;60181;53.258;6.932;2023-01-25T07:36:04;103692.04;;;13.04;63.04
65659;BME280;60181;53.258;6.932;2023-01-25T07:40:31;103690.48;;;13.02;63.00
65659;BME280;60181;53.258;6.932;2023-01-25T07:44:59;103687.18;;;13.01;63.00
65659;BME280;60181;53.258;6.932;2023-01-25T07:49:27;103684.99;;;13.00;62.86
65659;BME280;60181;53.258;6.932;2023-01-25T07:53:58;103682.93;;;12.99;62.86
65659;BME280;60181;53.258;6.932;2023-01-25T07:58:23;103679.58;;;12.98;62.83
65659;BME280;60181;53.258;6.932;2023-01-25T08:02:51;103677.29;;;12.97;62.81
65659;BME280;60181;53.258;6.932;2023-01-25T08:07:19;103675.06;;;12.98;62.42
65659;BME280;60181;53.258;6.932;2023-01-25T08:11:47;103671.75;;;13.04;61.93
65659;BME280;60181;53.258;6.932;2023-01-25T08:16:16;103668.14;;;13.15;61.14
65659;BME280;60181;53.258;6.932;2023-01-25T08:20:43;103664.05;;;13.19;61.73
65659;BME280;60181;53.258;6.932;2023-01-25T08:25:11;103661.82;;;13.19;62.01
65659;BME280;60181;53.258;6.932;2023-01-25T08:29:39;103658.95;;;13.16;62.29
65659;BME280;60181;53.258;6.932;2023-01-25T08:34:08;103655.65;;;13.13;62.42
65659;BME280;60181;53.258;6.932;2023-01-25T08:38:35;103652.53;;;13.10;62.55
65659;BME280;60181;53.258;6.932;2023-01-25T08:43:03;103648.23;;;13.07;62.58
65659;BME280;60181;53.258;6.932;2023-01-25T08:47:31;103643.64;;;13.04;62.61
65659;BME280;60181;53.258;6.932;2023-01-25T08:51:59;103638.56;;;13.02;62.66
65659;BME280;60181;53.258;6.932;2023-01-25T08:56:27;103633.47;;;13.01;62.48
65659;BME280;60181;53.258;6.932;2023-01-25T09:00:59;103627.60;;;13.03;62.40
65659;BME280;60181;53.258;6.932;2023-01-25T09:05:23;103622.36;;;13.08;62.15
65659;BME280;60181;53.258;6.932;2023-01-25T09:09:51;103618.19;;;13.12;63.39
65659;BME280;60181;53.258;6.932;2023-01-25T09:14:19;103614.10;;;13.11;63.38
65659;BME280;60181;53.258;6.932;2023-01-25T09:18:47;103610.84;;;13.08;63.43
65659;BME280;60181;53.258;6.932;2023-01-25T09:23:15;103610.28;;;13.05;63.33
65659;BME280;60181;53.258;6.932;2023-01-25T09:27:42;103609.59;;;13.02;63.29
65659;BME280;60181;53.258;6.932;2023-01-25T09:32:10;103605.97;;;13.01;63.23
65659;BME280;60181;53.258;6.932;2023-01-25T09:36:39;103601.73;;;12.99;63.17
65659;BME280;60181;53.258;6.932;2023-01-25T09:41:11;103598.38;;;12.98;63.17
65659;BME280;60181;53.258;6.932;2023-01-25T09:45:35;103595.42;;;12.97;63.21
65659;BME280;60181;53.258;6.932;2023-01-25T09:54:30;103587.62;;;12.96;63.16
65659;BME280;60181;53.258;6.932;2023-01-25T09:59:02;103583.53;;;12.95;63.17
65659;BME280;60181;53.258;6.932;2023-01-25T10:03:30;103578.75;;;12.94;63.14
65659;BME280;60181;53.258;6.932;2023-01-25T10:12:23;103567.94;;;13.02;63.02
65659;BME280;60181;53.258;6.932;2023-01-25T10:16:56;103563.27;;;13.01;63.33
65659;BME280;60181;53.258;6.932;2023-01-25T10:25:57;103556.57;;;12.97;63.61
65659;BME280;60181;53.258;6.932;2023-01-25T10:30:31;103551.64;;;12.96;63.66
65659;BME280;60181;53.258;6.932;2023-01-25T10:34:49;103545.00;;;12.95;63.71
65659;BME280;60181;53.258;6.932;2023-01-25T10:39:10;103536.54;;;12.94;63.79
65659;BME280;60181;53.258;6.932;2023-01-25T10:43:38;103528.89;;;12.93;63.77
65659;BME280;60181;53.258;6.932;2023-01-25T10:48:07;103522.51;;;12.92;63.79
65659;BME280;60181;53.258;6.932;2023-01-25T10:52:34;103515.42;;;12.92;63.81
65659;BME280;60181;53.258;6.932;2023-01-25T10:57:04;103506.71;;;12.91;63.79
65659;BME280;60181;53.258;6.932;2023-01-25T11:01:34;103499.13;;;12.90;63.78
65659;BME280;60181;53.258;6.932;2023-01-25T11:05:58;103490.20;;;12.90;63.80
65659;BME280;60181;53.258;6.932;2023-01-25T11:14:54;103472.52;;;12.90;63.82
65659;BME280;60181;53.258;6.932;2023-01-25T11:19:24;103465.28;;;12.90;63.83
65659;BME280;60181;53.258;6.932;2023-01-25T11:28:22;103452.25;;;12.90;63.82
65659;BME280;60181;53.258;6.932;2023-01-25T11:32:46;103443.40;;;12.90;63.88
65659;BME280;60181;53.258;6.932;2023-01-25T11:37:21;103434.47;;;12.90;63.88
65659;BME280;60181;53.258;6.932;2023-01-25T11:50:44;103399.26;;;12.92;63.83
65659;BME280;60181;53.258;6.932;2023-01-25T11:55:23;103387.34;;;12.93;63.83
65659;BME280;60181;53.258;6.932;2023-01-25T12:08:46;103351.75;;;12.94;63.90
65659;BME280;60181;53.258;6.932;2023-01-25T12:13:01;103340.00;;;12.94;63.93
65659;BME280;60181;53.258;6.932;2023-01-25T12:26:24;103310.30;;;12.96;63.92
65659;BME280;60181;53.258;6.932;2023-01-25T12:35:22;103289.38;;;12.97;63.98
65659;BME280;60181;53.258;6.932;2023-01-25T12:39:52;103278.39;;;12.97;63.99
65659;BME280;60181;53.258;6.932;2023-01-25T12:44:16;103268.93;;;12.97;63.99
65659;BME280;60181;53.258;6.932;2023-01-25T12:48:44;103259.48;;;12.98;64.02
65659;BME280;60181;53.258;6.932;2023-01-25T12:53:16;103249.61;;;12.98;64.06
65659;BME280;60181;53.258;6.932;2023-01-25T13:02:11;103231.29;;;12.98;64.12
65659;BME280;60181;53.258;6.932;2023-01-25T13:06:44;103222.47;;;12.98;64.14
65659;BME280;60181;53.258;6.932;2023-01-25T13:11:10;103213.66;;;12.97;64.19
65659;BME280;60181;53.258;6.932;2023-01-25T13:15:40;103205.42;;;12.97;64.20
65659;BME280;60181;53.258;6.932;2023-01-25T13:19:58;103197.20;;;12.97;64.19
65659;BME280;60181;53.258;6.932;2023-01-25T13:24:27;103189.31;;;12.97;64.19
65659;BME280;60181;53.258;6.932;2023-01-25T13:28:55;103181.25;;;12.98;64.24
65659;BME280;60181;53.258;6.932;2023-01-25T13:33:32;103175.21;;;12.98;64.22
65659;BME280;60181;53.258;6.932;2023-01-25T13:42:22;103164.61;;;12.99;64.25
65659;BME280;60181;53.258;6.932;2023-01-25T13:46:46;103160.67;;;12.99;64.30
65659;BME280;60181;53.258;6.932;2023-01-25T13:51:14;103154.87;;;12.99;64.31
65659;BME280;60181;53.258;6.932;2023-01-25T14:00:13;103140.31;;;13.00;64.32
65659;BME280;60181;53.258;6.932;2023-01-25T14:04:38;103135.96;;;13.00;64.40
65659;BME280;60181;53.258;6.932;2023-01-25T14:09:15;103131.69;;;13.00;64.39
65659;BME280;60181;53.258;6.932;2023-01-25T14:13:34;103127.56;;;13.00;64.40
65659;BME280;60181;53.258;6.932;2023-01-25T14:18:12;103124.85;;;13.00;64.44
65659;BME280;60181;53.258;6.932;2023-01-25T14:22:31;103123.62;;;13.00;64.54
65659;BME280;60181;53.258;6.932;2023-01-25T14:26:58;103120.65;;;13.00;64.53
65659;BME280;60181;53.258;6.932;2023-01-25T14:31:30;103115.47;;;13.00;64.54
65659;BME280;60181;53.258;6.932;2023-01-25T14:35:55;103109.70;;;13.00;64.54
65659;BME280;60181;53.258;6.932;2023-01-25T14:40:22;103103.96;;;13.00;64.54
65659;BME280;60181;53.258;6.932;2023-01-25T14:44:50;103098.10;;;12.99;64.57
65659;BME280;60181;53.258;6.932;2023-01-25T14:49:19;103090.48;;;12.99;64.60
65659;BME280;60181;53.258;6.932;2023-01-25T14:53:47;103083.00;;;12.99;64.60
65659;BME280;60181;53.258;6.932;2023-01-25T14:58:17;103074.35;;;12.98;64.58
65659;BME280;60181;53.258;6.932;2023-01-25T15:03:00;103064.15;;;12.98;64.61
65659;BME280;60181;53.258;6.932;2023-01-25T15:07:29;103055.19;;;12.99;64.62
65659;BME280;60181;53.258;6.932;2023-01-25T15:11:38;103048.28;;;12.99;64.60
65659;BME280;60181;53.258;6.932;2023-01-25T15:16:06;103046.30;;;12.99;64.57
65659;BME280;60181;53.258;6.932;2023-01-25T15:20:37;103045.90;;;12.99;64.63
65659;BME280;60181;53.258;6.932;2023-01-25T15:25:04;103046.14;;;12.99;64.63
65659;BME280;60181;53.258;6.932;2023-01-25T15:29:30;103049.27;;;12.99;64.66
65659;BME280;60181;53.258;6.932;2023-01-25T15:33:58;103053.78;;;12.98;64.66
65659;BME280;60181;53.258;6.932;2023-01-25T15:38:26;103057.31;;;12.98;64.66
65659;BME280;60181;53.258;6.932;2023-01-25T15:42:54;103057.03;;;12.98;64.63
65659;BME280;60181;53.258;6.932;2023-01-25T15:47:22;103054.81;;;12.98;64.61
65659;BME280;60181;53.258;6.932;2023-01-25T15:51:50;103054.31;;;12.98;64.56
65659;BME280;60181;53.258;6.932;2023-01-25T15:56:19;103053.48;;;12.98;64.58
65659;BME280;60181;53.258;6.932;2023-01-25T16:00:46;103051.18;;;12.98;64.58
65659;BME280;60181;53.258;6.932;2023-01-25T16:05:14;103047.66;;;12.98;64.55
65659;BME280;60181;53.258;6.932;2023-01-25T16:09:42;103042.40;;;12.98;64.61
65659;BME280;60181;53.258;6.932;2023-01-25T16:14:10;103037.72;;;12.99;64.31
65659;BME280;60181;53.258;6.932;2023-01-25T16:18:38;103033.75;;;13.04;64.00
65659;BME280;60181;53.258;6.932;2023-01-25T16:23:06;103028.72;;;13.05;64.29
65659;BME280;60181;53.258;6.932;2023-01-25T16:27:34;103022.31;;;13.06;64.40
65659;BME280;60181;53.258;6.932;2023-01-25T16:32:02;103017.10;;;13.06;64.41
65659;BME280;60181;53.258;6.932;2023-01-25T16:36:30;103012.16;;;13.06;64.48
65659;BME280;60181;53.258;6.932;2023-01-25T16:40:58;103007.81;;;13.07;64.46
65659;BME280;60181;53.258;6.932;2023-01-25T16:45:26;103002.05;;;13.07;64.45
65659;BME280;60181;53.258;6.932;2023-01-25T16:49:54;102993.98;;;13.07;64.50
65659;BME280;60181;53.258;6.932;2023-01-25T16:54:22;102984.69;;;13.06;64.52
65659;BME280;60181;53.258;6.932;2023-01-25T16:58:50;102976.95;;;13.06;64.50
65659;BME280;60181;53.258;6.932;2023-01-25T17:03:18;102968.07;;;13.06;64.52
65659;BME280;60181;53.258;6.932;2023-01-25T17:07:49;102958.75;;;13.06;64.50
65659;BME280;60181;53.258;6.932;2023-01-25T17:12:14;102947.95;;;13.06;64.47
65659;BME280;60181;53.258;6.932;2023-01-25T17:16:42;102937.33;;;13.06;64.47
65659;BME280;60181;53.258;6.932;2023-01-25T17:21:10;102928.44;;;13.06;64.44
65659;BME280;60181;53.258;6.932;2023-01-25T17:25:38;102921.13;;;13.06;64.61
65659;BME280;60181;53.258;6.932;2023-01-25T17:30:06;102913.12;;;13.08;64.21
65659;BME280;60181;53.258;6.932;2023-01-25T17:34:34;102904.58;;;13.09;64.41
65659;BME280;60181;53.258;6.932;2023-01-25T17:39:03;102897.34;;;13.09;64.50
65659;BME280;60181;53.258;6.932;2023-01-25T17:43:30;102887.45;;;13.08;64.52
65659;BME280;60181;53.258;6.932;2023-01-25T17:47:58;102877.21;;;13.08;64.53
65659;BME280;60181;53.258;6.932;2023-01-25T17:52:26;102869.07;;;13.08;64.51
65659;BME280;60181;53.258;6.932;2023-01-25T17:56:54;102861.74;;;13.08;64.50
65659;BME280;60181;53.258;6.932;2023-01-25T18:01:23;102854.17;;;13.08;64.50
65659;BME280;60181;53.258;6.932;2023-01-25T18:05:54;102845.03;;;13.08;64.52
65659;BME280;60181;53.258;6.932;2023-01-25T18:10:18;102835.66;;;13.08;64.54
65659;BME280;60181;53.258;6.932;2023-01-25T18:14:46;102828.42;;;13.08;64.51
65659;BME280;60181;53.258;6.932;2023-01-25T18:19:14;102824.22;;;13.08;64.51
65659;BME280;60181;53.258;6.932;2023-01-25T18:23:42;102818.63;;;13.08;64.49
65659;BME280;60181;53.258;6.932;2023-01-25T18:28:11;102811.72;;;13.08;64.50
65659;BME280;60181;53.258;6.932;2023-01-25T18:32:38;102804.64;;;13.08;64.50
65659;BME280;60181;53.258;6.932;2023-01-25T18:37:06;102797.89;;;13.08;64.49
65659;BME280;60181;53.258;6.932;2023-01-25T18:41:34;102794.03;;;13.08;64.46
65659;BME280;60181;53.258;6.932;2023-01-25T18:46:02;102791.74;;;13.08;64.50
65659;BME280;60181;53.258;6.932;2023-01-25T18:50:33;102790.98;;;13.08;64.47
65659;BME280;60181;53.258;6.932;2023-01-25T18:54:58;102789.58;;;13.08;64.51
65659;BME280;60181;53.258;6.932;2023-01-25T18:59:26;102788.43;;;13.08;64.46
65659;BME280;60181;53.258;6.932;2023-01-25T19:03:54;102787.28;;;13.08;64.43
65659;BME280;60181;53.258;6.932;2023-01-25T19:08:22;102785.62;;;13.08;64.42
65659;BME280;60181;53.258;6.932;2023-01-25T19:12:50;102783.50;;;13.08;64.44
65659;BME280;60181;53.258;6.932;2023-01-25T19:17:18;102780.29;;;13.08;64.46
65659;BME280;60181;53.258;6.932;2023-01-25T19:21:46;102776.60;;;13.08;64.37
65659;BME280;60181;53.258;6.932;2023-01-25T19:26:15;102774.57;;;13.08;64.39
65659;BME280;60181;53.258;6.932;2023-01-25T19:30:42;102772.51;;;13.09;64.42
65659;BME280;60181;53.258;6.932;2023-01-25T19:35:10;102770.54;;;13.09;64.43
65659;BME280;60181;53.258;6.932;2023-01-25T19:39:38;102766.36;;;13.09;64.41
65659;BME280;60181;53.258;6.932;2023-01-25T19:44:06;102760.60;;;13.09;64.40
65659;BME280;60181;53.258;6.932;2023-01-25T19:48:34;102755.58;;;13.09;64.41
65659;BME280;60181;53.258;6.932;2023-01-25T19:53:02;102751.06;;;13.09;64.38
65659;BME280;60181;53.258;6.932;2023-01-25T19:57:30;102747.89;;;13.10;64.39
65659;BME280;60181;53.258;6.932;2023-01-25T20:01:58;102744.57;;;13.13;64.11
65659;BME280;60181;53.258;6.932;2023-01-25T20:06:26;102740.47;;;13.18;63.99
65659;BME280;60181;53.258;6.932;2023-01-25T20:11:00;102737.51;;;13.19;64.53
65659;BME280;60181;53.258;6.932;2023-01-25T20:15:22;102734.17;;;13.18;64.67
65659;BME280;60181;53.258;6.932;2023-01-25T20:19:50;102731.31;;;13.17;64.64
65659;BME280;60181;53.258;6.932;2023-01-25T20:24:18;102726.99;;;13.16;64.65
65659;BME280;60181;53.258;6.932;2023-01-25T20:28:47;102723.40;;;13.16;64.64
65659;BME280;60181;53.258;6.932;2023-01-25T20:33:14;102721.25;;;13.15;64.58
65659;BME280;60181;53.258;6.932;2023-01-25T20:37:42;102719.57;;;13.14;64.58
65659;BME280;60181;53.258;6.932;2023-01-25T20:42:10;102718.98;;;13.14;64.58
65659;BME280;60181;53.258;6.932;2023-01-25T20:46:38;102718.57;;;13.14;64.57
65659;BME280;60181;53.258;6.932;2023-01-25T20:51:06;102716.97;;;13.14;64.55
65659;BME280;60181;53.258;6.932;2023-01-25T20:55:33;102715.72;;;13.13;64.57
65659;BME280;60181;53.258;6.932;2023-01-25T21:00:02;102714.81;;;13.13;64.52
65659;BME280;60181;53.258;6.932;2023-01-25T21:04:29;102711.60;;;13.13;64.49
65659;BME280;60181;53.258;6.932;2023-01-25T21:08:57;102708.31;;;13.13;64.49
65659;BME280;60181;53.258;6.932;2023-01-25T21:13:26;102705.07;;;13.13;64.48
65659;BME280;60181;53.258;6.932;2023-01-25T21:17:53;102703.42;;;13.13;64.46
65659;BME280;60181;53.258;6.932;2023-01-25T21:22:21;102700.61;;;13.12;64.42
65659;BME280;60181;53.258;6.932;2023-01-25T21:26:49;102697.47;;;13.12;64.46
65659;BME280;60181;53.258;6.932;2023-01-25T21:31:18;102694.89;;;13.11;64.47
65659;BME280;60181;53.258;6.932;2023-01-25T21:35:45;102692.33;;;13.11;64.37
65659;BME280;60181;53.258;6.932;2023-01-25T21:40:14;102689.05;;;13.11;64.37
65659;BME280;60181;53.258;6.932;2023-01-25T21:44:41;102683.76;;;13.11;64.38
65659;BME280;60181;53.258;6.932;2023-01-25T21:49:10;102678.53;;;13.17;63.84
65659;BME280;60181;53.258;6.932;2023-01-25T21:53:37;102675.32;;;13.34;62.97
65659;BME280;60181;53.258;6.932;2023-01-25T21:58:05;102673.36;;;13.47;63.14
65659;BME280;60181;53.258;6.932;2023-01-25T22:02:33;102669.75;;;13.56;63.38
65659;BME280;60181;53.258;6.932;2023-01-25T22:07:02;102666.64;;;13.64;63.60
65659;BME280;60181;53.258;6.932;2023-01-25T22:11:29;102666.09;;;13.70;63.70
65659;BME280;60181;53.258;6.932;2023-01-25T22:16:00;102664.44;;;13.74;63.79
65659;BME280;60181;53.258;6.932;2023-01-25T22:20:26;102661.17;;;13.76;63.63
65659;BME280;60181;53.258;6.932;2023-01-25T22:24:53;102658.63;;;13.78;63.82
65659;BME280;60181;53.258;6.932;2023-01-25T22:29:21;102656.03;;;13.79;63.76
65659;BME280;60181;53.258;6.932;2023-01-25T22:33:49;102653.74;;;13.79;63.69
65659;BME280;60181;53.258;6.932;2023-01-25T22:38:17;102650.98;;;13.80;63.60
65659;BME280;60181;53.258;6.932;2023-01-25T22:42:45;102646.12;;;13.80;63.60
65659;BME280;60181;53.258;6.932;2023-01-25T22:47:13;102640.52;;;13.80;63.62
65659;BME280;60181;53.258;6.932;2023-01-25T22:51:41;102635.90;;;13.80;63.36
65659;BME280;60181;53.258;6.932;2023-01-25T22:56:10;102632.03;;;13.80;63.27
65659;BME280;60181;53.258;6.932;2023-01-25T23:00:37;102629.06;;;13.80;63.00
65659;BME280;60181;53.258;6.932;2023-01-25T23:05:06;102626.64;;;13.79;63.05
65659;BME280;60181;53.258;6.932;2023-01-25T23:09:33;102624.67;;;13.79;62.86
65659;BME280;60181;53.258;6.932;2023-01-25T23:14:02;102621.36;;;13.79;62.94
65659;BME280;60181;53.258;6.932;2023-01-25T23:18:29;102618.52;;;13.78;62.98
65659;BME280;60181;53.258;6.932;2023-01-25T23:22:57;102615.22;;;13.78;62.96
65659;BME280;60181;53.258;6.932;2023-01-25T23:27:25;102611.15;;;13.77;62.97
65659;BME280;60181;53.258;6.932;2023-01-25T23:31:53;102607.92;;;13.76;62.87
65659;BME280;60181;53.258;6.932;2023-01-25T23:36:22;102605.48;;;13.75;62.84
65659;BME280;60181;53.258;6.932;2023-01-25T23:40:49;102602.14;;;13.74;63.03
65659;BME280;60181;53.258;6.932;2023-01-25T23:45:17;102599.48;;;13.76;63.73
65659;BME280;60181;53.258;6.932;2023-01-25T23:49:45;102596.48;;;13.77;64.29
65659;BME280;60181;53.258;6.932;2023-01-25T23:54:13;102592.53;;;13.77;63.84
65659;BME280;60181;53.258;6.932;2023-01-25T23:58:41;102588.57;;;13.77;63.87
